Time;durP1;ratioP1;P1;durP2;ratioP2;P2;SDS_P1;SDS_P2;PMS_P1;PMS_P2;Temp;Humidity;BMP_temperature;BMP_pressure;BME280_temperature;BME280_humidity;BME280_pressure;Samples;Min_cycle;Max_cycle;Signal;HPM_P1;HPM_P2
2022/04/19 00:01:26;;;;;;;6.43;4.60;;;;;;;9.05;54.56;100764.44;5019263;28;20077;-87
2022/04/19 00:03:53;;;;;;;8.98;4.45;;;;;;;9.08;54.71;100759.75;5018986;28;20120;-87
2022/04/19 00:06:19;;;;;;;5.72;4.40;;;;;;;8.83;54.75;100750.78;5018663;28;20081;-87
2022/04/19 00:08:51;;;;;;;9.95;5.35;;;;;;;8.75;55.25;100753.28;5019178;28;20106;-87
2022/04/19 00:11:18;;;;;;;7.05;4.68;;;;;;;8.84;54.81;100757.66;5018612;28;20528;-87
2022/04/19 00:13:45;;;;;;;8.45;5.10;;;;;;;8.82;55.15;100756.97;5020128;28;20110;-87
2022/04/19 00:16:14;;;;;;;8.70;5.00;;;;;;;8.65;56.11;100755.09;5019826;28;20085;-87
2022/04/19 00:18:40;;;;;;;8.20;4.35;;;;;;;8.63;55.93;100759.63;5019292;28;20105;-87
2022/04/19 00:21:07;;;;;;;7.30;4.80;;;;;;;8.70;56.15;100760.72;5017965;28;20070;-87
2022/04/19 00:23:34;;;;;;;6.05;4.78;;;;;;;8.52;56.65;100751.94;5018946;28;20409;-87
2022/04/19 00:26:05;;;;;;;5.70;4.65;;;;;;;8.39;57.34;100748.81;5019179;28;20156;-88
2022/04/19 00:28:32;;;;;;;6.57;4.72;;;;;;;8.35;58.97;100761.31;5018360;28;20058;-87
2022/04/19 00:30:58;;;;;;;7.05;4.63;;;;;;;8.38;59.67;100761.03;5018902;28;20053;-87
2022/04/19 00:33:26;;;;;;;7.05;4.68;;;;;;;8.26;60.76;100749.06;5018672;28;20133;-87
2022/04/19 00:35:53;;;;;;;8.30;5.00;;;;;;;8.15;61.68;100755.25;5018783;28;20049;-87
2022/04/19 00:38:20;;;;;;;7.38;4.72;;;;;;;8.16;62.27;100740.44;5019815;28;20114;-86
2022/04/19 00:40:46;;;;;;;7.35;4.95;;;;;;;8.08;62.17;100753.31;5019478;28;20050;-87
2022/04/19 00:43:18;;;;;;;7.82;5.15;;;;;;;8.05;62.84;100749.19;5018750;28;20050;-87
2022/04/19 00:45:45;;;;;;;7.90;4.80;;;;;;;7.94;63.09;100752.78;5000735;28;20126;-87
2022/04/19 00:48:11;;;;;;;9.07;5.00;;;;;;;7.92;62.35;100736.47;5017420;28;20288;-87
2022/04/19 00:50:38;;;;;;;7.30;5.07;;;;;;;7.82;63.09;100750.44;5017996;28;20052;-86
2022/04/19 00:53:08;;;;;;;8.20;5.38;;;;;;;7.87;62.26;100750.84;5018217;28;20485;-86
2022/04/19 00:55:35;;;;;;;6.93;4.82;;;;;;;7.75;63.27;100744.13;5018651;28;20063;-87
2022/04/19 00:58:02;;;;;;;8.95;5.20;;;;;;;7.73;63.03;100743.44;5018379;28;20180;-87
2022/04/19 01:00:30;;;;;;;6.82;5.07;;;;;;;7.62;63.12;100746.97;5017534;28;20121;-87
2022/04/19 01:02:56;;;;;;;7.75;5.28;;;;;;;7.62;62.94;100741.75;5017326;28;20057;-86
2022/04/19 01:05:23;;;;;;;8.00;5.38;;;;;;;7.54;62.79;100745.06;5018358;28;20068;-87
2022/04/19 01:07:50;;;;;;;7.20;5.50;;;;;;;7.48;63.09;100735.16;5018046;28;20077;-87
2022/04/19 01:10:17;;;;;;;9.50;5.53;;;;;;;7.42;63.79;100720.09;5018097;28;20081;-87
2022/04/19 01:15:28;;;;;;;8.75;5.72;;;;;;;7.44;62.48;100738.16;5017882;28;20061;-86
2022/04/19 01:18:00;;;;;;;9.50;5.15;;;;;;;7.35;63.18;100731.97;5017047;28;20109;-87
2022/04/19 01:20:28;;;;;;;10.85;5.60;;;;;;;7.32;63.25;100733.06;5017048;28;20122;-87
2022/04/19 01:22:56;;;;;;;8.43;5.28;;;;;;;7.30;63.30;100721.97;5017624;28;20045;-86
2022/04/19 01:25:23;;;;;;;6.25;5.15;;;;;;;7.34;63.44;100727.72;5017260;28;20129;-86
2022/04/19 01:27:49;;;;;;;8.52;5.35;;;;;;;7.33;64.04;100726.06;5017895;28;20156;-87
2022/04/19 01:30:17;;;;;;;9.82;5.90;;;;;;;7.30;64.26;100734.16;5018401;28;20137;-86
2022/04/19 01:32:44;;;;;;;8.32;5.35;;;;;;;7.25;64.11;100725.91;5016361;28;20124;-87
2022/04/19 01:35:12;;;;;;;7.47;5.20;;;;;;;7.14;64.35;100723.41;5015004;28;20088;-87
2022/04/19 01:37:40;;;;;;;7.15;5.10;;;;;;;7.04;64.46;100719.97;5014656;28;20148;-87
2022/04/19 01:40:18;;;;;;;7.63;5.53;;;;;;;7.03;64.00;100726.94;5014463;28;20042;-86
2022/04/19 01:42:46;;;;;;;6.78;5.40;;;;;;;7.02;64.02;100732.28;5014890;28;20141;-87
2022/04/19 01:45:14;;;;;;;11.88;5.40;;;;;;;7.03;64.82;100729.53;5014459;28;20190;-88
2022/04/19 01:47:41;;;;;;;6.95;5.18;;;;;;;7.03;64.66;100720.91;5017995;28;20088;-86
2022/04/19 01:50:09;;;;;;;7.25;5.30;;;;;;;6.99;65.49;100728.97;5018282;28;20057;-87
2022/04/19 01:52:36;;;;;;;8.20;5.47;;;;;;;6.94;66.48;100725.94;5018136;28;20493;-86
2022/04/19 01:55:04;;;;;;;8.00;5.50;;;;;;;7.03;66.05;100726.13;5018392;28;20132;-86
2022/04/19 01:57:32;;;;;;;6.78;5.10;;;;;;;7.01;65.55;100725.44;5018427;28;20136;-87
2022/04/19 01:59:59;;;;;;;8.88;5.30;;;;;;;6.89;65.33;100724.69;5018194;28;20477;-86
2022/04/19 02:02:26;;;;;;;7.45;5.50;;;;;;;6.80;66.25;100720.25;5019261;28;20077;-86
2022/04/19 02:04:52;;;;;;;11.32;5.05;;;;;;;6.76;66.09;100722.28;5019334;28;20113;-87
2022/04/19 02:07:19;;;;;;;8.55;5.22;;;;;;;6.65;66.16;100719.75;5020139;28;20129;-87
2022/04/19 02:09:47;;;;;;;10.15;5.70;;;;;;;6.61;66.26;100728.78;5020124;28;20132;-87
2022/04/19 02:12:14;;;;;;;8.13;5.45;;;;;;;6.56;67.20;100716.19;5020513;28;20054;-87
2022/04/19 02:14:42;;;;;;;7.82;5.63;;;;;;;6.51;67.19;100722.72;5021154;28;20505;-86
2022/04/19 02:17:10;;;;;;;7.45;5.90;;;;;;;6.42;68.45;100721.69;5021830;28;20053;-86
2022/04/19 02:19:36;;;;;;;8.38;5.57;;;;;;;6.40;68.34;100704.56;5023192;28;20089;-86
2022/04/19 02:22:05;;;;;;;8.15;5.57;;;;;;;6.37;69.22;100710.03;5027321;28;20121;-87
2022/04/19 02:24:32;;;;;;;8.15;5.43;;;;;;;6.24;69.52;100705.84;5032852;28;20109;-87
2022/04/19 02:26:58;;;;;;;9.77;5.80;;;;;;;6.21;69.23;100715.66;5028631;28;20092;-87
2022/04/19 02:29:25;;;;;;;8.27;5.75;;;;;;;6.29;68.88;100718.44;5019112;28;20050;-87
2022/04/19 02:31:54;;;;;;;9.02;6.10;;;;;;;6.24;69.09;100711.03;5019050;28;20057;-86
2022/04/19 02:34:21;;;;;;;8.65;6.05;;;;;;;6.16;68.93;100707.41;5018615;28;20095;-87
2022/04/19 02:36:48;;;;;;;10.05;5.97;;;;;;;6.23;69.43;100708.56;5018393;28;20111;-87
2022/04/19 02:39:15;;;;;;;9.50;6.05;;;;;;;6.19;69.51;100709.75;5018579;28;20149;-86
2022/04/19 02:41:41;;;;;;;7.40;5.90;;;;;;;6.19;69.69;100710.56;5018037;28;20517;-87
2022/04/19 02:44:08;;;;;;;7.45;5.60;;;;;;;6.13;69.83;100708.50;5018879;28;20408;-87
2022/04/19 02:46:35;;;;;;;7.13;5.22;;;;;;;6.11;69.75;100702.63;5017391;28;20469;-87
2022/04/19 02:49:04;;;;;;;9.40;5.88;;;;;;;6.03;69.57;100707.59;5016986;28;20064;-87
2022/04/19 02:51:31;;;;;;;7.68;5.57;;;;;;;5.90;69.85;100697.38;5018009;28;20037;-87
2022/04/19 02:53:58;;;;;;;7.70;6.15;;;;;;;5.95;69.63;100700.44;5018336;28;20080;-87
2022/04/19 02:56:25;;;;;;;7.28;5.80;;;;;;;5.80;70.29;100699.03;5017233;28;20050;-87
2022/04/19 02:58:51;;;;;;;8.52;5.82;;;;;;;5.86;70.71;100695.13;5016196;28;20045;-87
2022/04/19 03:01:18;;;;;;;8.98;6.72;;;;;;;5.89;69.92;100702.69;5017262;28;20089;-86
2022/04/19 03:03:45;;;;;;;10.88;6.28;;;;;;;5.86;69.98;100703.75;5016525;28;20057;-87
2022/04/19 03:06:13;;;;;;;9.40;6.28;;;;;;;5.79;71.52;100704.34;5016729;28;20133;-87
2022/04/19 03:08:40;;;;;;;13.98;8.30;;;;;;;5.75;71.52;100698.56;5016510;28;20131;-87
2022/04/19 03:11:07;;;;;;;13.52;8.25;;;;;;;5.80;71.05;100693.84;5016953;28;20496;-86
2022/04/19 03:13:33;;;;;;;10.70;8.13;;;;;;;5.67;71.13;100693.19;5016778;28;20099;-87
2022/04/19 03:16:00;;;;;;;12.13;8.27;;;;;;;5.78;71.06;100697.50;5017093;28;20078;-86
2022/04/19 03:18:27;;;;;;;10.73;8.00;;;;;;;5.76;70.29;100702.81;5016446;28;20049;-87
2022/04/19 03:20:53;;;;;;;10.43;7.75;;;;;;;5.86;70.13;100703.75;5017796;28;20361;-87
2022/04/19 03:28:49;;;;;;;9.48;6.22;;;;;;;5.82;70.90;100709.31;5016728;28;20061;-86
2022/04/19 03:31:16;;;;;;;10.23;6.85;;;;;;;5.80;71.13;100708.59;5016369;28;20407;-87
2022/04/19 03:33:43;;;;;;;9.95;7.43;;;;;;;5.76;71.20;100707.19;5016190;28;20140;-87
2022/04/19 03:36:10;;;;;;;14.70;7.10;;;;;;;5.71;71.38;100707.56;5015891;28;20053;-87
2022/04/19 03:38:38;;;;;;;11.65;6.82;;;;;;;5.65;72.04;100713.28;5015373;28;20069;-87
2022/04/19 03:41:05;;;;;;;9.60;6.60;;;;;;;5.60;72.64;100711.03;5015664;28;20117;-87
2022/04/19 03:43:32;;;;;;;8.05;6.32;;;;;;;5.59;72.58;100701.59;5016699;28;20566;-87
2022/04/19 03:45:59;;;;;;;10.90;6.90;;;;;;;5.60;72.51;100711.03;5015877;28;20080;-87
2022/04/19 03:48:25;;;;;;;10.95;6.40;;;;;;;5.54;72.48;100703.72;5015273;28;20126;-87
2022/04/19 03:50:53;;;;;;;7.63;6.30;;;;;;;5.52;71.74;100707.41;5015686;28;20052;-87
2022/04/19 03:53:19;;;;;;;8.52;6.55;;;;;;;5.44;72.78;100700.22;5015117;28;20132;-87
2022/04/19 03:55:47;;;;;;;9.52;6.20;;;;;;;5.45;73.18;100707.06;5014831;28;20461;-87
2022/04/19 03:58:14;;;;;;;13.82;6.93;;;;;;;5.45;73.17;100712.25;5014974;28;20105;-87
2022/04/19 04:00:40;;;;;;;11.25;6.93;;;;;;;5.50;73.01;100704.91;5016146;28;20153;-87
2022/04/19 04:03:08;;;;;;;12.52;6.75;;;;;;;5.41;74.83;100710.84;5016111;28;20084;-87
2022/04/19 04:05:34;;;;;;;7.57;5.93;;;;;;;5.36;73.90;100712.97;5016486;28;20137;-87
2022/04/19 04:08:01;;;;;;;7.10;5.65;;;;;;;5.34;74.30;100710.47;5016475;28;20136;-87
2022/04/19 04:10:28;;;;;;;8.00;6.30;;;;;;;5.30;74.17;100710.84;5016583;28;20053;-86
2022/04/19 04:12:58;;;;;;;7.97;6.32;;;;;;;5.15;74.66;100719.84;5016102;28;20053;-86
2022/04/19 04:15:25;;;;;;;9.90;6.28;;;;;;;4.98;75.72;100719.38;5015200;28;20056;-87
2022/04/19 04:17:51;;;;;;;11.10;6.88;;;;;;;4.91;75.77;100713.00;5014783;28;20232;-86
2022/04/19 04:20:18;;;;;;;12.43;6.60;;;;;;;4.80;76.54;100714.75;5015175;28;20132;-86
2022/04/19 04:22:45;;;;;;;8.45;6.20;;;;;;;4.74;77.01;100721.22;5014869;28;20065;-86
2022/04/19 04:25:11;;;;;;;12.38;6.65;;;;;;;4.78;76.21;100712.28;5014996;28;20453;-86
2022/04/19 04:27:38;;;;;;;8.85;6.38;;;;;;;4.78;76.45;100708.84;5014451;28;20077;-86
2022/04/19 04:30:07;;;;;;;9.18;6.70;;;;;;;4.85;76.37;100715.22;5014666;28;20140;-87
2022/04/19 04:32:34;;;;;;;8.80;6.50;;;;;;;4.89;75.87;100711.47;5014999;28;20056;-86
2022/04/19 04:35:00;;;;;;;12.80;7.53;;;;;;;4.86;75.77;100715.13;5014929;28;20053;-87
2022/04/19 04:37:27;;;;;;;11.20;7.90;;;;;;;4.93;75.88;100715.47;5014588;28;20120;-86
2022/04/19 04:39:53;;;;;;;10.80;7.35;;;;;;;4.98;75.17;100719.38;5014396;28;20168;-87
2022/04/19 04:42:20;;;;;;;14.40;7.70;;;;;;;5.00;75.32;100716.66;5015598;28;20060;-86
2022/04/19 04:44:46;;;;;;;15.05;7.30;;;;;;;5.02;75.36;100724.31;5015628;28;20137;-86
2022/04/19 04:49:59;;;;;;;10.52;6.63;;;;;;;5.15;75.12;100720.66;5014013;28;20103;-86
2022/04/19 04:52:26;;;;;;;9.52;6.72;;;;;;;5.10;75.78;100721.97;5014482;28;20141;-87
2022/04/19 04:54:52;;;;;;;11.20;6.95;;;;;;;5.23;74.05;100718.28;5015438;28;20081;-87
2022/04/19 04:57:20;;;;;;;12.55;6.82;;;;;;;5.23;74.91;100738.22;5015792;28;20089;-87
2022/04/19 04:59:48;;;;;;;10.82;7.03;;;;;;;5.31;75.29;100744.44;5015132;28;20045;-87
2022/04/19 05:02:16;;;;;;;9.35;6.93;;;;;;;5.24;74.80;100747.63;5016004;28;20054;-87
2022/04/19 05:04:43;;;;;;;11.57;7.32;;;;;;;5.03;75.84;100747.53;5015639;28;20168;-86
2022/04/19 05:07:09;;;;;;;8.65;6.32;;;;;;;4.73;77.63;100735.13;5015656;28;20050;-87
2022/04/19 05:09:36;;;;;;;9.25;6.50;;;;;;;4.73;77.44;100744.66;5014949;28;20422;-86
2022/04/19 05:12:03;;;;;;;11.57;6.90;;;;;;;4.82;77.18;100744.81;5015325;28;20056;-87
2022/04/19 05:14:29;;;;;;;10.05;6.65;;;;;;;4.88;76.89;100738.34;5015491;28;20096;-86
2022/04/19 05:16:56;;;;;;;13.68;8.80;;;;;;;4.98;76.23;100757.44;5015535;28;20062;-86
2022/04/19 05:19:24;;;;;;;10.20;6.90;;;;;;;5.06;76.23;100751.66;5014403;28;20054;-86
2022/04/19 05:21:53;;;;;;;8.68;6.80;;;;;;;5.26;75.52;100753.53;5018018;28;20125;-86
2022/04/19 05:24:20;;;;;;;10.48;6.63;;;;;;;5.37;75.26;100756.13;5018118;28;20065;-87
2022/04/19 05:26:46;;;;;;;11.07;6.88;;;;;;;5.56;74.75;100751.16;5032116;28;20174;-87
2022/04/19 05:29:13;;;;;;;8.48;6.65;;;;;;;5.73;73.41;100749.81;5037066;28;20136;-87
2022/04/19 05:31:39;;;;;;;10.00;6.45;;;;;;;5.92;72.77;100744.84;5037382;28;20132;-87
2022/04/19 05:34:06;;;;;;;10.52;6.60;;;;;;;6.09;72.07;100740.88;5038265;28;20124;-87
2022/04/19 05:36:35;;;;;;;12.88;6.57;;;;;;;6.29;71.35;100740.06;5020918;28;20076;-87
2022/04/19 05:39:02;;;;;;;12.25;7.28;;;;;;;6.32;71.69;100734.63;5017790;28;20056;-87
2022/04/19 05:41:29;;;;;;;14.25;7.80;;;;;;;6.51;71.58;100736.53;5017237;28;20054;-87
2022/04/19 05:43:55;;;;;;;24.92;7.80;;;;;;;6.97;70.41;100743.06;5017922;28;20053;-88
2022/04/19 05:46:22;;;;;;;13.40;6.82;;;;;;;8.24;67.68;100733.56;5036875;28;20053;-87
2022/04/19 05:48:49;;;;;;;14.57;6.80;;;;;;;9.89;61.63;100723.31;5037730;28;20129;-88
2022/04/19 05:51:16;;;;;;;15.32;7.25;;;;;;;11.91;55.96;100726.19;5037849;28;20132;-88
2022/04/19 05:53:44;;;;;;;13.20;6.30;;;;;;;13.34;51.65;100736.00;5038170;28;20541;-88
2022/04/19 05:56:11;;;;;;;10.02;6.35;;;;;;;13.73;49.75;100737.75;5038326;28;20053;-88
2022/04/19 05:58:37;;;;;;;14.40;6.45;;;;;;;12.80;51.81;100735.81;5038101;28;20053;-89
2022/04/19 06:01:04;;;;;;;9.10;5.90;;;;;;;12.68;52.72;100742.44;5039179;28;20107;-89
2022/04/19 06:06:15;;;;;;;11.27;6.13;;;;;;;14.36;48.52;100731.38;5037948;28;20051;-88
2022/04/19 06:08:44;;;;;;;13.48;6.35;;;;;;;14.63;46.48;100741.34;5038207;28;20084;-89
2022/04/19 06:11:12;;;;;;;17.83;6.85;;;;;;;14.93;45.87;100744.81;5037136;28;20493;-88
2022/04/19 06:13:39;;;;;;;20.48;6.50;;;;;;;15.37;45.09;100744.78;5038551;28;20113;-89
2022/04/19 06:16:06;;;;;;;19.50;6.80;;;;;;;15.12;45.04;100748.75;5037795;28;20128;-89
2022/04/19 06:18:33;;;;;;;20.48;6.65;;;;;;;15.12;45.17;100754.00;5038824;28;20053;-89
2022/04/19 06:21:00;;;;;;;12.35;6.72;;;;;;;15.23;45.55;100745.63;5039147;28;20076;-90
2022/04/19 06:23:27;;;;;;;11.30;6.03;;;;;;;15.06;45.85;100749.47;5038015;28;20057;-89
2022/04/19 06:25:55;;;;;;;16.52;7.00;;;;;;;15.09;46.39;100743.84;5043024;28;20187;-94
2022/04/19 06:28:22;;;;;;;10.80;6.80;;;;;;;15.44;45.48;100753.59;5039186;28;20050;-88
2022/04/19 06:30:49;;;;;;;11.73;7.30;;;;;;;16.33;43.57;100740.09;5037805;28;20133;-89
2022/04/19 06:33:15;;;;;;;10.02;6.22;;;;;;;15.94;44.40;100744.03;5035576;28;20308;-89
2022/04/19 06:35:42;;;;;;;9.75;6.50;;;;;;;16.33;43.52;100738.28;5038369;28;20073;-89
2022/04/19 06:38:09;;;;;;;8.82;6.70;;;;;;;15.78;44.58;100746.91;5037903;28;20076;-89
2022/04/19 06:40:36;;;;;;;7.65;6.55;;;;;;;16.87;40.87;100741.13;5037609;28;20068;-90
2022/04/19 06:43:04;;;;;;;8.63;6.88;;;;;;;16.00;43.44;100735.38;5037652;28;20052;-89
2022/04/19 06:45:33;;;;;;;7.53;6.47;;;;;;;16.27;42.37;100744.31;5038306;28;20076;-89
2022/04/19 06:48:02;;;;;;;8.57;6.28;;;;;;;16.20;42.34;100735.53;5037608;28;20081;-89
2022/04/19 06:50:29;;;;;;;9.68;6.60;;;;;;;16.83;41.91;100739.88;5036859;28;20138;-88
2022/04/19 06:52:56;;;;;;;13.95;7.05;;;;;;;16.34;41.66;100731.19;5038068;28;20128;-90
2022/04/19 06:55:23;;;;;;;8.05;6.50;;;;;;;16.67;41.29;100734.09;5038968;28;20041;-89
2022/04/19 06:58:09;;;;;;;9.70;6.20;;;;;;;17.51;40.27;100721.47;5071686;22;20080;-79
2022/04/19 07:00:42;;;;;;;7.38;5.97;;;;;;;17.53;39.61;100735.31;5059464;28;20037;-82
2022/04/19 07:03:44;;;;;;;9.57;6.28;;;;;;;17.80;38.94;100730.94;5053439;28;20037;-84
2022/04/19 07:12:49;;;;;;;17.00;7.07;;;;;;;18.55;36.61;100733.22;5055711;22;20076;-80
2022/04/19 07:15:16;;;;;;;22.88;17.17;;;;;;;17.96;38.04;100729.75;5071010;28;20078;-79
2022/04/19 07:17:44;;;;;;;11.52;6.53;;;;;;;17.86;38.04;100722.22;5061677;28;20114;-79
2022/04/19 07:28:26;;;;;;;8.68;5.85;;;;;;;18.09;36.33;100735.06;5064974;28;20096;-78
2022/04/19 07:30:52;;;;;;;7.03;5.55;;;;;;;18.25;36.07;100742.59;5065222;28;20075;-78
2022/04/19 07:33:20;;;;;;;9.27;6.55;;;;;;;17.70;38.60;100749.84;5063654;28;20076;-79
2022/04/19 07:35:47;;;;;;;7.95;6.35;;;;;;;19.35;35.71;100741.81;5064528;28;20215;-79
2022/04/19 07:38:14;;;;;;;9.23;6.47;;;;;;;18.84;37.06;100747.06;5064600;28;20044;-78
2022/04/19 07:40:40;;;;;;;12.90;6.93;;;;;;;20.00;34.33;100739.00;5058588;28;20057;-80
2022/04/19 07:43:09;;;;;;;11.30;7.00;;;;;;;19.91;35.13;100742.94;5054855;28;20092;-80
2022/04/19 07:45:49;;;;;;;10.00;7.10;;;;;;;18.37;36.79;100742.81;5055685;28;20044;-78
2022/04/19 07:48:18;;;;;;;10.98;6.95;;;;;;;19.08;36.02;100738.44;5056188;28;20055;-79
2022/04/19 07:50:48;;;;;;;9.20;7.07;;;;;;;18.99;36.29;100736.22;5054833;28;20060;-80
2022/04/19 07:53:15;;;;;;;10.73;7.22;;;;;;;19.13;35.96;100738.63;5056879;28;20057;-79
2022/04/19 07:55:41;;;;;;;9.68;8.02;;;;;;;19.06;36.15;100742.31;5064136;28;20098;-78
2022/04/19 07:58:08;;;;;;;8.48;7.22;;;;;;;18.73;37.38;100737.09;5065723;28;20702;-79
2022/04/19 08:00:36;;;;;;;10.20;7.18;;;;;;;18.37;36.89;100738.34;5057492;28;20049;-79
2022/04/19 08:03:03;;;;;;;12.32;6.90;;;;;;;19.00;35.98;100727.22;5069277;28;20051;-78
2022/04/19 08:05:29;;;;;;;10.55;7.60;;;;;;;17.76;38.15;100735.00;5062173;28;20064;-80
2022/04/19 08:07:59;;;;;;;8.93;7.50;;;;;;;17.59;37.64;100737.97;5066271;28;20041;-80
2022/04/19 08:10:25;;;;;;;9.52;7.53;;;;;;;17.33;38.11;100740.56;5063024;28;20040;-79
2022/04/19 08:12:52;;;;;;;11.70;8.15;;;;;;;18.15;35.49;100740.34;5068186;28;20501;-79
2022/04/19 08:15:19;;;;;;;12.15;8.25;;;;;;;18.77;34.58;100727.72;5066089;28;20105;-78
2022/04/19 08:17:46;;;;;;;13.85;9.80;;;;;;;17.43;35.26;100735.72;5067732;28;20070;-78
2022/04/19 08:20:13;;;;;;;17.77;10.05;;;;;;;17.79;33.94;100735.44;5065661;28;20107;-77
2022/04/19 08:22:40;;;;;;;17.25;9.25;;;;;;;17.18;34.21;100737.22;5079585;28;20076;-79
2022/04/19 08:25:10;;;;;;;12.27;9.05;;;;;;;17.46;34.91;100734.50;5073128;28;20519;-81
2022/04/19 08:27:48;;;;;;;14.48;9.32;;;;;;;18.24;33.65;100733.84;5067696;28;20053;-78
2022/04/19 08:30:19;;;;;;;13.68;8.52;;;;;;;17.95;34.49;100734.25;5070443;28;20048;-80
2022/04/19 08:32:46;;;;;;;16.10;8.27;;;;;;;18.18;33.34;100732.00;5072260;28;20411;-80
2022/04/19 08:35:13;;;;;;;12.45;8.68;;;;;;;18.66;34.02;100723.03;5058187;28;20517;-79
2022/04/19 08:37:41;;;;;;;10.93;7.85;;;;;;;18.70;33.91;100721.59;5076901;28;20139;-80
2022/04/19 08:40:11;;;;;;;12.07;8.85;;;;;;;18.86;33.46;100719.34;5078084;28;20434;-81
2022/04/19 08:42:40;;;;;;;17.67;9.40;;;;;;;17.94;33.79;100721.22;5078258;28;20076;-80
2022/04/19 08:45:09;;;;;;;14.57;8.52;;;;;;;18.10;33.14;100718.16;5078853;28;20333;-80
2022/04/19 08:47:38;;;;;;;15.70;9.07;;;;;;;18.01;32.75;100722.81;5076179;28;20136;-79
2022/04/19 08:50:07;;;;;;;11.52;8.98;;;;;;;17.85;33.33;100723.22;5077617;28;20071;-80
2022/04/19 08:52:37;;;;;;;12.63;8.80;;;;;;;18.72;32.74;100715.06;5078251;28;20049;-80
2022/04/19 08:57:55;;;;;;;11.85;9.13;;;;;;;17.36;34.10;100729.56;5076993;28;20422;-79
2022/04/19 09:00:24;;;;;;;13.32;9.85;;;;;;;18.35;32.72;100726.31;5077346;28;20078;-80
2022/04/19 09:02:52;;;;;;;12.88;9.10;;;;;;;17.93;34.04;100725.69;5077298;28;20049;-78
2022/04/19 09:08:32;;;;;;;13.63;9.05;;;;;;;17.79;33.25;100710.78;5078096;28;20082;-80
2022/04/19 09:11:24;;;;;;;;;;;;;;;;;;;;;
2022/04/19 09:14:06;;;;;;;12.73;9.60;;;;;;;18.30;33.24;100716.31;5084053;28;20578;-80
2022/04/19 09:16:36;;;;;;;15.32;9.60;;;;;;;17.92;33.98;100710.00;5082318;28;20084;-79
2022/04/19 09:19:27;;;;;;;12.70;9.23;;;;;;;17.95;33.65;100713.06;5080688;28;20142;-81
2022/04/19 09:21:58;;;;;;;13.23;9.10;;;;;;;18.61;32.69;100710.41;5079945;28;20037;-80
2022/04/19 09:27:14;;;;;;;14.27;9.10;;;;;;;18.48;32.96;100697.13;5079228;28;20056;-79
2022/04/19 09:33:08;;;;;;;12.93;9.40;;;;;;;18.96;31.84;100691.53;5068048;28;20060;-78
2022/04/19 09:36:02;;;;;;;16.15;9.55;;;;;;;17.47;33.66;100701.75;5058156;28;20056;-80
2022/04/19 09:39:05;;;;;;;15.68;9.57;;;;;;;17.85;32.81;100680.88;5060022;28;20422;-80
2022/04/19 09:41:38;;;;;;;;;;;;;;;17.55;34.19;100704.19;5044714;28;20049;-78
2022/04/19 09:44:12;;;;;;;11.70;9.25;;;;;;;17.89;33.45;100695.34;5060033;28;19920;-79
2022/04/19 09:47:01;;;;;;;14.10;10.18;;;;;;;17.24;34.33;100688.84;5058368;28;20088;-79
2022/04/19 09:49:44;;;;;;;14.15;9.75;;;;;;;17.47;34.04;100691.16;5056663;28;20053;-78
2022/04/19 09:52:12;;;;;;;;;;;;;;;17.48;33.71;100701.53;5057726;28;20136;-79
2022/04/19 09:54:48;;;;;;;13.50;9.68;;;;;;;17.88;33.40;100680.47;5058002;28;19925;-80
2022/04/19 09:57:17;;;;;;;15.73;9.88;;;;;;;18.22;32.78;100684.75;5058482;28;20053;-78
2022/04/19 10:00:09;;;;;;;13.25;9.93;;;;;;;18.62;33.17;100682.88;5057596;28;20041;-82
2022/04/19 10:08:56;;;;;;;13.57;10.05;;;;;;;18.42;32.87;100682.91;5064490;28;20146;-81
2022/04/19 10:11:41;;;;;;;15.07;9.70;;;;;;;17.64;33.58;100657.19;5078904;28;20047;-79
2022/04/19 10:14:10;;;;;;;13.48;9.82;;;;;;;17.84;33.20;100656.22;5079067;28;20044;-80
2022/04/19 10:16:44;;;;;;;13.55;10.10;;;;;;;18.15;33.61;100668.03;5075475;28;20114;-82
2022/04/19 10:19:11;;;;;;;13.75;10.13;;;;;;;18.06;32.55;100654.19;5064248;28;20052;-81
2022/04/19 10:21:48;;;;;;;19.05;10.23;;;;;;;17.74;33.34;100652.34;5063192;28;20048;-80
2022/04/19 10:24:16;;;;;;;18.05;10.65;;;;;;;18.28;32.66;100659.28;5063612;28;20053;-80
2022/04/19 10:26:47;;;;;;;15.45;10.40;;;;;;;18.09;32.88;100651.13;5060833;28;20049;-78
2022/04/19 10:29:19;;;;;;;14.57;10.13;;;;;;;18.67;32.13;100653.91;5061544;28;20103;-80
2022/04/19 10:32:07;;;;;;;;;;;;;;;18.57;31.71;100651.66;5064217;28;20056;-80
2022/04/19 10:34:54;;;;;;;13.20;9.90;;;;;;;18.01;32.47;100643.38;5066640;28;19943;-80
2022/04/19 10:37:29;;;;;;;12.63;8.75;;;;;;;18.23;31.84;100641.34;5064568;28;20522;-81
2022/04/19 10:40:06;;;;;;;12.38;8.70;;;;;;;18.50;30.87;100627.00;5060162;28;20069;-82
2022/04/19 10:42:36;;;;;;;12.25;8.32;;;;;;;18.69;31.07;100633.31;5059511;28;20124;-80
2022/04/19 10:48:58;;;;;;;11.35;8.48;;;;;;;18.69;30.60;100630.69;5037270;28;20143;-81
2022/04/19 10:51:32;;;;;;;13.07;9.60;;;;;;;18.78;30.95;100629.44;5061005;28;20045;-79
2022/04/19 10:54:50;;;;;;;14.75;8.82;;;;;;;19.55;29.48;100615.16;5061646;28;20473;-80
2022/04/19 11:00:27;;;;;;;11.15;8.23;;;;;;;18.82;29.84;100617.38;5037270;28;20056;-81
2022/04/19 11:03:00;;;;;;;;;;;;;;;19.45;28.02;100624.56;5061581;28;20052;-82
2022/04/19 11:05:41;;;;;;;10.88;6.60;;;;;;;19.48;27.29;100619.66;5059742;28;19921;-82
2022/04/19 11:08:21;;;;;;;9.02;6.32;;;;;;;18.99;28.09;100607.09;5060534;28;20057;-83
2022/04/19 11:10:48;;;;;;;7.78;6.00;;;;;;;19.14;27.26;100617.44;5062061;28;20124;-79
2022/04/19 11:13:17;;;;;;;9.50;6.55;;;;;;;18.95;27.14;100613.03;5081394;28;20552;-79
2022/04/19 11:22:05;;;;;;;10.38;7.30;;;;;;;18.71;28.76;100599.47;5080914;28;20049;-80
2022/04/19 11:28:35;;;;;;;10.50;7.07;;;;;;;19.28;27.86;100605.72;5045197;28;20091;-78
2022/04/19 11:31:18;;;;;;;9.65;7.13;;;;;;;19.76;27.36;100599.91;5088809;28;20049;-82
2022/04/19 11:33:57;;;;;;;;;;;;;;;19.89;27.30;100599.75;5084867;28;20048;-79
2022/04/19 11:36:24;;;;;;;10.38;7.03;;;;;;;20.05;27.44;100599.22;5087789;28;19924;-78
2022/04/19 11:38:54;;;;;;;9.77;6.90;;;;;;;19.68;28.00;100586.88;5086305;28;20052;-79
2022/04/19 11:46:59;;;;;;;10.70;6.97;;;;;;;19.50;28.30;100591.06;5035257;28;20473;-81
2022/04/19 11:49:28;;;;;;;8.70;6.78;;;;;;;19.61;28.20;100588.78;5060303;28;20116;-81
2022/04/19 11:52:20;;;;;;;7.57;6.18;;;;;;;19.53;27.87;100580.06;5059409;28;20059;-79
2022/04/19 11:54:55;;;;;;;8.40;6.88;;;;;;;19.37;27.98;100577.91;5044980;28;20049;-79
2022/04/19 12:00:08;;;;;;;9.05;6.60;;;;;;;19.06;27.95;100577.88;5057898;28;20057;-81
2022/04/19 12:02:38;;;;;;;8.90;6.53;;;;;;;19.03;27.72;100588.91;5060225;28;20044;-79
2022/04/19 12:05:06;;;;;;;7.18;5.93;;;;;;;19.76;26.78;100583.97;5061569;28;20114;-82
2022/04/19 12:07:33;;;;;;;7.85;5.63;;;;;;;19.45;26.65;100592.72;5059852;28;20072;-80
2022/04/19 12:10:01;;;;;;;7.13;5.72;;;;;;;19.40;26.88;100588.06;5057803;28;20063;-80
2022/04/19 12:12:28;;;;;;;7.13;5.68;;;;;;;19.40;27.14;100585.41;5061070;28;20048;-79
2022/04/19 12:14:55;;;;;;;8.15;6.18;;;;;;;19.31;26.89;100588.56;5061255;28;20079;-80
2022/04/19 12:17:27;;;;;;;8.73;5.97;;;;;;;19.58;26.76;100586.56;5060830;28;20522;-79
2022/04/19 12:20:14;;;;;;;15.02;5.43;;;;;;;19.93;26.13;100590.34;5058901;28;20048;-80
2022/04/19 12:28:50;;;;;;;7.93;5.63;;;;;;;19.78;25.41;100576.59;5060158;28;20120;-81
2022/04/19 12:31:36;;;;;;;6.25;5.10;;;;;;;19.77;25.86;100574.97;5064511;28;20483;-81
2022/04/19 12:34:11;;;;;;;6.20;5.00;;;;;;;19.34;25.92;100559.75;5063102;28;20081;-82
2022/04/19 12:36:51;;;;;;;6.85;5.40;;;;;;;19.52;26.10;100562.50;5062918;28;20045;-81
2022/04/19 12:39:25;;;;;;;6.65;5.45;;;;;;;18.93;26.67;100556.72;5060606;28;20048;-81
2022/04/19 12:42:04;;;;;;;8.50;5.55;;;;;;;19.55;26.72;100563.91;5062361;28;20084;-81
2022/04/19 12:44:35;;;;;;;6.55;5.45;;;;;;;19.67;26.60;100564.03;5061844;28;20095;-79
2022/04/19 12:47:12;;;;;;;6.60;5.40;;;;;;;19.60;26.20;100560.59;5064953;28;20510;-78
2022/04/19 12:49:46;;;;;;;7.72;5.20;;;;;;;19.57;26.62;100542.47;5069043;28;20049;-78
2022/04/19 12:52:17;;;;;;;7.60;6.05;;;;;;;19.95;27.16;100556.41;5070937;28;20087;-80
2022/04/19 12:54:50;;;;;;;8.30;5.28;;;;;;;20.03;26.98;100552.66;5063065;28;20114;-79
2022/04/19 12:57:23;;;;;;;7.82;5.25;;;;;;;19.98;27.24;100548.00;5069957;28;20049;-80